createdAt,value
2022-12-03T00:00:52.469Z,35.97
2022-12-03T00:01:55.175Z,36.28
2022-12-03T00:02:57.992Z,34.38
2022-12-03T00:04:00.924Z,37.85
2022-12-03T00:05:03.858Z,37.95
2022-12-03T00:06:06.736Z,36.38
2022-12-03T00:07:09.571Z,37.85
2022-12-03T00:08:13.105Z,31.95
2022-12-03T00:09:15.877Z,38.50
2022-12-03T00:10:18.691Z,36.50
2022-12-03T00:11:21.380Z,36.83
2022-12-03T00:12:24.011Z,37.20
2022-12-03T00:13:26.677Z,34.85
2022-12-03T00:14:29.315Z,40.12
2022-12-03T00:15:32.156Z,36.42
2022-12-03T00:16:34.904Z,32.35
2022-12-03T00:17:37.604Z,40.85
2022-12-03T00:18:40.409Z,38.58
2022-12-03T00:19:43.273Z,36.33
2022-12-03T00:20:46.030Z,35.42
2022-12-03T00:21:50.067Z,40.60
2022-12-03T00:22:53.040Z,40.42
2022-12-03T00:23:55.774Z,39.63
2022-12-03T00:24:58.452Z,39.28
2022-12-03T00:26:01.253Z,40.22
2022-12-03T00:27:04.165Z,44.13
2022-12-03T00:28:07.740Z,37.50
2022-12-03T00:29:11.423Z,40.53
2022-12-03T00:30:14.671Z,41.10
2022-12-03T00:31:17.804Z,43.95
2022-12-03T00:32:20.807Z,40.50
2022-12-03T00:33:23.532Z,36.70
2022-12-03T00:34:26.261Z,41.65
2022-12-03T00:35:28.963Z,34.58
2022-12-03T00:36:31.684Z,37.67
2022-12-03T00:37:35.437Z,38.88
2022-12-03T00:38:38.132Z,40.10
2022-12-03T00:39:41.064Z,46.00
2022-12-03T00:40:44.172Z,41.45
2022-12-03T00:41:47.129Z,43.65
2022-12-03T00:42:49.699Z,41.85
2022-12-03T00:43:52.491Z,38.25
2022-12-03T00:44:55.773Z,39.63
2022-12-03T00:45:58.793Z,40.45
2022-12-03T00:47:01.769Z,39.28
2022-12-03T00:48:04.844Z,40.10
2022-12-03T00:49:07.761Z,40.70
2022-12-03T00:50:10.964Z,40.45
2022-12-03T00:51:13.770Z,37.80
2022-12-03T00:52:16.440Z,39.97
2022-12-03T00:53:19.225Z,43.05
2022-12-03T00:54:24.530Z,36.95
2022-12-03T00:55:31.200Z,38.88
2022-12-03T00:56:34.049Z,37.92
2022-12-03T00:57:36.852Z,38.13
2022-12-03T00:58:39.761Z,44.15
2022-12-03T00:59:42.593Z,42.35
2022-12-03T01:00:45.147Z,36.85
2022-12-03T01:01:48.028Z,38.65
2022-12-03T01:02:53.734Z,37.00
2022-12-03T01:03:56.668Z,38.10
2022-12-03T01:04:59.442Z,40.22
2022-12-03T01:06:02.143Z,41.45
2022-12-03T01:07:05.025Z,38.95
2022-12-03T01:08:07.963Z,33.90
2022-12-03T01:09:10.705Z,40.10
2022-12-03T01:10:14.752Z,38.90
2022-12-03T01:11:36.119Z,40.05
2022-12-03T01:12:39.066Z,39.30
2022-12-03T01:13:41.984Z,37.90
2022-12-03T01:14:44.653Z,38.80
2022-12-03T01:15:47.904Z,41.53
2022-12-03T01:16:51.192Z,33.80
2022-12-03T01:17:54.495Z,40.90
2022-12-03T01:18:57.369Z,41.72
2022-12-03T01:20:01.742Z,47.10
2022-12-03T01:21:04.571Z,44.22
2022-12-03T01:22:07.758Z,44.63
2022-12-03T01:23:10.459Z,44.65
2022-12-03T01:24:13.583Z,40.45
2022-12-03T01:25:16.416Z,44.92
2022-12-03T01:26:19.143Z,40.95
2022-12-03T01:27:21.964Z,38.25
2022-12-03T01:28:25.246Z,48.42
2022-12-03T01:29:28.294Z,42.28
2022-12-03T01:30:50.965Z,45.85
2022-12-03T01:32:12.583Z,41.42
2022-12-03T01:33:15.290Z,41.90
2022-12-03T01:34:17.931Z,42.95
2022-12-03T01:35:21.013Z,45.90
2022-12-03T01:36:23.923Z,45.60
2022-12-03T01:37:26.885Z,45.60
2022-12-03T01:38:29.466Z,48.22
2022-12-03T01:39:32.170Z,43.85
2022-12-03T01:40:35.003Z,53.87
2022-12-03T01:41:39.101Z,41.42
2022-12-03T01:42:42.827Z,42.40
2022-12-03T01:43:46.277Z,44.25
2022-12-03T01:44:52.219Z,43.67
2022-12-03T01:45:55.148Z,42.92
2022-12-03T01:47:00.562Z,45.58
2022-12-03T01:48:03.380Z,44.80
2022-12-03T01:49:06.860Z,47.78
2022-12-03T01:50:19.624Z,43.00
2022-12-03T01:51:22.957Z,46.55
2022-12-03T01:52:30.424Z,46.08
2022-12-03T01:53:33.355Z,46.97
2022-12-03T01:54:42.074Z,64.68
2022-12-03T01:55:48.608Z,45.53
2022-12-03T01:56:53.186Z,45.45
2022-12-03T01:57:59.322Z,46.35
2022-12-03T01:59:02.898Z,46.20
2022-12-03T02:00:07.648Z,47.75
2022-12-03T02:01:19.041Z,48.92
2022-12-03T02:02:30.331Z,69.00
2022-12-03T02:03:33.540Z,77.12
2022-12-03T02:04:36.251Z,52.45
2022-12-03T02:05:39.225Z,42.28
2022-12-03T02:06:43.551Z,56.50
2022-12-03T02:07:46.651Z,54.25
2022-12-03T02:08:50.052Z,66.87
2022-12-03T02:09:53.693Z,49.85
2022-12-03T02:10:59.394Z,46.53
2022-12-03T02:12:02.269Z,41.75
2022-12-03T02:13:11.117Z,46.83
2022-12-03T02:14:19.928Z,83.10
2022-12-03T02:15:23.150Z,58.20
2022-12-03T02:16:26.191Z,65.10
2022-12-03T02:17:29.223Z,53.53
2022-12-03T02:18:32.049Z,45.45
2022-12-03T02:19:34.921Z,40.50
2022-12-03T02:21:30.561Z,65.53
2022-12-03T02:23:20.022Z,56.35
2022-12-03T02:25:07.412Z,81.80
2022-12-03T02:26:11.252Z,64.60
2022-12-03T02:27:14.212Z,87.43
2022-12-03T02:28:17.371Z,63.30
2022-12-03T02:29:20.019Z,82.95
2022-12-03T02:30:25.093Z,85.80
2022-12-03T02:31:27.774Z,117.13
2022-12-03T02:32:30.644Z,59.92
2022-12-03T02:33:33.459Z,51.25
2022-12-03T02:34:39.333Z,62.65
2022-12-03T02:35:42.101Z,66.00
2022-12-03T02:36:44.849Z,93.60
2022-12-03T02:37:53.168Z,73.78
2022-12-03T02:38:55.904Z,144.07
2022-12-03T02:40:03.342Z,115.07
2022-12-03T02:41:10.818Z,41.42
2022-12-03T02:42:32.693Z,103.35
2022-12-03T02:43:35.745Z,98.35
2022-12-03T02:44:38.510Z,98.65
2022-12-03T02:45:46.867Z,59.60
2022-12-03T02:46:49.641Z,45.92
2022-12-03T02:47:56.507Z,83.12
2022-12-03T02:49:00.087Z,80.43
2022-12-03T02:50:04.211Z,60.72
2022-12-03T02:51:09.609Z,94.97
2022-12-03T02:52:12.558Z,188.00
2022-12-03T02:53:21.922Z,82.37
2022-12-03T02:54:24.745Z,47.38
2022-12-03T02:55:35.059Z,46.75
2022-12-03T02:56:39.871Z,47.70
2022-12-03T02:57:44.408Z,45.65
2022-12-03T02:58:52.737Z,42.03
2022-12-03T02:59:56.264Z,142.48
2022-12-03T03:01:00.176Z,126.55
2022-12-03T03:02:03.268Z,113.30
2022-12-03T03:03:08.212Z,93.53
2022-12-03T03:04:11.006Z,75.82
2022-12-03T03:05:16.697Z,52.88
2022-12-03T03:06:20.530Z,65.10
2022-12-03T03:07:23.391Z,80.80
2022-12-03T03:08:27.330Z,62.28
2022-12-03T03:09:30.093Z,67.97
2022-12-03T03:10:34.536Z,65.32
2022-12-03T03:11:37.189Z,118.25
2022-12-03T03:12:40.522Z,86.95
2022-12-03T03:13:43.723Z,54.22
2022-12-03T03:14:46.536Z,134.02
2022-12-03T03:15:49.655Z,50.72
2022-12-03T03:16:56.443Z,75.90
2022-12-03T03:17:59.636Z,64.70
2022-12-03T03:19:02.661Z,56.60
2022-12-03T03:20:08.132Z,82.28
2022-12-03T03:21:10.814Z,95.78
2022-12-03T03:22:13.512Z,76.65
2022-12-03T03:23:19.403Z,58.00
2022-12-03T03:24:23.511Z,66.20
2022-12-03T03:25:26.133Z,64.37
2022-12-03T03:26:28.965Z,65.65
2022-12-03T03:27:32.005Z,55.40
2022-12-03T03:28:40.690Z,53.08
2022-12-03T03:29:43.396Z,102.82
2022-12-03T03:30:46.956Z,66.57
2022-12-03T03:31:50.013Z,63.65
2022-12-03T03:32:52.842Z,45.12
2022-12-03T03:33:55.606Z,73.35
2022-12-03T03:34:58.277Z,52.42
2022-12-03T03:36:01.683Z,67.70
2022-12-03T03:37:04.932Z,104.35
2022-12-03T03:38:09.050Z,69.03
2022-12-03T03:39:12.037Z,62.75
2022-12-03T03:40:15.235Z,56.63
2022-12-03T03:41:19.433Z,85.55
2022-12-03T03:42:22.878Z,54.45
2022-12-03T03:43:25.875Z,56.17
2022-12-03T03:44:28.791Z,89.22
2022-12-03T03:45:31.642Z,59.60
2022-12-03T03:46:36.026Z,66.28
2022-12-03T03:47:39.358Z,55.78
2022-12-03T03:48:43.845Z,54.28
2022-12-03T03:49:48.293Z,60.40
2022-12-03T03:50:52.182Z,61.53
2022-12-03T03:51:55.798Z,55.00
2022-12-03T03:53:01.897Z,47.47
2022-12-03T03:54:06.832Z,55.17
2022-12-03T03:55:11.902Z,56.55
2022-12-03T03:56:16.787Z,53.38
2022-12-03T03:57:19.699Z,45.08
2022-12-03T03:58:22.776Z,54.10
2022-12-03T03:59:25.379Z,49.92
2022-12-03T04:00:28.290Z,55.40
2022-12-03T04:01:31.684Z,60.08
2022-12-03T04:02:35.294Z,126.18
2022-12-03T04:03:37.976Z,64.97
2022-12-03T04:04:40.717Z,58.30
2022-12-03T04:05:43.450Z,56.67
2022-12-03T04:06:46.780Z,80.90
2022-12-03T04:07:49.916Z,66.05
2022-12-03T04:08:52.797Z,57.72
2022-12-03T04:09:55.529Z,57.80
2022-12-03T04:11:17.054Z,47.88
2022-12-03T04:12:42.689Z,62.03
2022-12-03T04:13:45.410Z,59.63
2022-12-03T04:14:48.131Z,60.92
2022-12-03T04:15:51.100Z,50.90
2022-12-03T04:16:53.747Z,60.15
2022-12-03T04:18:15.330Z,48.15
2022-12-03T04:19:18.272Z,46.90
2022-12-03T04:20:21.343Z,51.10
2022-12-03T04:21:43.166Z,55.75
2022-12-03T04:22:45.886Z,55.85
2022-12-03T04:23:48.494Z,55.15
2022-12-03T04:24:51.539Z,49.40
2022-12-03T04:26:12.783Z,58.78
2022-12-03T04:27:33.978Z,53.10
2022-12-03T04:28:52.092Z,49.92
2022-12-03T04:29:54.720Z,53.85
2022-12-03T04:30:57.481Z,49.10
2022-12-03T04:32:18.650Z,65.30
2022-12-03T04:33:40.124Z,74.93
2022-12-03T04:35:01.427Z,48.72
2022-12-03T04:36:04.896Z,48.33
2022-12-03T04:37:08.543Z,48.87
2022-12-03T04:38:14.123Z,57.55
2022-12-03T04:39:16.982Z,48.20
2022-12-03T04:40:38.398Z,54.75
2022-12-03T04:41:41.155Z,66.93
2022-12-03T04:42:43.904Z,53.53
2022-12-03T04:44:06.871Z,51.58
2022-12-03T04:45:09.937Z,57.38
2022-12-03T04:46:12.710Z,53.13
2022-12-03T04:47:20.312Z,44.92
2022-12-03T04:48:22.993Z,45.97
2022-12-03T04:49:26.336Z,46.47
2022-12-03T04:50:29.004Z,51.78
2022-12-03T04:51:31.768Z,56.17
2022-12-03T04:52:34.413Z,46.28
2022-12-03T04:53:39.678Z,45.08
2022-12-03T04:54:46.514Z,49.00
2022-12-03T04:55:49.203Z,52.15
2022-12-03T04:56:51.875Z,43.60
2022-12-03T04:57:54.511Z,53.10
2022-12-03T04:58:57.167Z,49.03
2022-12-03T04:59:59.830Z,50.63
2022-12-03T05:01:02.637Z,50.22
2022-12-03T05:02:06.522Z,47.03
2022-12-03T05:03:09.336Z,42.08
2022-12-03T05:04:13.569Z,47.35
2022-12-03T05:05:16.833Z,48.22
2022-12-03T05:06:19.412Z,52.60
2022-12-03T05:07:22.126Z,51.03
2022-12-03T05:08:24.765Z,52.38
2022-12-03T05:09:27.333Z,50.72
2022-12-03T05:10:30.570Z,43.00
2022-12-03T05:11:33.293Z,52.38
2022-12-03T05:12:36.410Z,43.55
2022-12-03T05:13:39.067Z,46.17
2022-12-03T05:14:41.731Z,48.25
2022-12-03T05:15:44.371Z,50.50
2022-12-03T05:16:46.994Z,42.45
2022-12-03T05:17:49.721Z,48.08
2022-12-03T05:18:52.522Z,42.30
2022-12-03T05:20:14.388Z,47.47
2022-12-03T05:21:17.136Z,46.75
2022-12-03T05:22:19.879Z,44.28
2022-12-03T05:23:22.704Z,50.00
2022-12-03T05:24:25.363Z,49.75
2022-12-03T05:25:28.553Z,50.12
2022-12-03T05:26:31.464Z,50.92
2022-12-03T05:27:34.955Z,51.60
2022-12-03T05:28:37.776Z,51.13
2022-12-03T05:29:40.412Z,48.90
2022-12-03T05:30:43.358Z,47.67
2022-12-03T05:31:46.096Z,45.22
2022-12-03T05:32:48.894Z,53.25
2022-12-03T05:33:51.633Z,46.03
2022-12-03T05:34:54.368Z,52.35
2022-12-03T05:35:57.602Z,46.10
2022-12-03T05:37:00.312Z,45.53
2022-12-03T05:38:03.155Z,49.83
2022-12-03T05:39:06.021Z,52.92
2022-12-03T05:40:10.042Z,50.08
2022-12-03T05:41:33.041Z,47.10
2022-12-03T05:42:54.250Z,45.90
2022-12-03T05:43:57.023Z,45.92
2022-12-03T05:44:59.768Z,46.10
2022-12-03T05:46:02.574Z,47.40
2022-12-03T05:47:05.442Z,48.67
2022-12-03T05:48:13.829Z,47.35
2022-12-03T05:49:16.885Z,43.53
2022-12-03T05:50:20.811Z,43.30
2022-12-03T05:51:23.521Z,47.40
2022-12-03T05:52:26.142Z,44.88
2022-12-03T05:53:28.792Z,46.83
2022-12-03T05:54:31.427Z,47.17
2022-12-03T05:55:34.165Z,43.20
2022-12-03T05:56:37.132Z,43.25
2022-12-03T05:57:40.177Z,42.08
2022-12-03T05:58:42.873Z,45.92
2022-12-03T05:59:45.571Z,43.38
2022-12-03T06:00:48.309Z,45.97
2022-12-03T06:01:51.044Z,44.58
2022-12-03T06:02:54.322Z,43.72
2022-12-03T06:03:57.103Z,42.92
2022-12-03T06:05:00.249Z,46.08
2022-12-03T06:06:02.890Z,43.97
2022-12-03T06:07:09.735Z,45.72
2022-12-03T06:08:16.350Z,44.60
2022-12-03T06:09:19.140Z,42.67
2022-12-03T06:10:24.661Z,38.50
2022-12-03T06:11:27.407Z,41.13
2022-12-03T06:12:30.181Z,41.37
2022-12-03T06:13:32.857Z,38.97
2022-12-03T06:14:35.929Z,44.30
2022-12-03T06:15:43.529Z,37.45
2022-12-03T06:16:46.815Z,41.15
2022-12-03T06:17:49.850Z,34.50
2022-12-03T06:18:52.487Z,32.25
2022-12-03T06:19:55.293Z,38.95
2022-12-03T06:20:58.350Z,36.30
2022-12-03T06:22:00.907Z,40.42
2022-12-03T06:23:03.498Z,42.67
2022-12-03T06:24:06.448Z,39.00
2022-12-03T06:25:09.984Z,43.10
2022-12-03T06:26:13.798Z,37.17
2022-12-03T06:27:17.052Z,38.92
2022-12-03T06:28:19.838Z,42.90
2022-12-03T06:29:22.607Z,44.83
2022-12-03T06:30:25.369Z,45.03
2022-12-03T06:31:28.786Z,44.13
2022-12-03T06:32:31.604Z,46.42
2022-12-03T06:33:34.306Z,41.35
2022-12-03T06:34:37.208Z,42.78
2022-12-03T06:35:39.836Z,43.10
2022-12-03T06:36:42.657Z,44.10
2022-12-03T06:37:45.752Z,43.85
2022-12-03T06:38:48.404Z,43.65
2022-12-03T06:39:51.069Z,41.25
2022-12-03T06:40:53.842Z,38.45
2022-12-03T06:41:56.508Z,44.30
2022-12-03T06:42:59.219Z,41.28
2022-12-03T06:44:01.839Z,40.47
2022-12-03T06:45:05.170Z,39.58
2022-12-03T06:46:08.108Z,40.58
2022-12-03T06:47:10.913Z,41.22
2022-12-03T06:48:13.588Z,43.58
2022-12-03T06:49:17.842Z,36.40
2022-12-03T06:50:20.568Z,36.22
2022-12-03T06:51:23.233Z,38.25
2022-12-03T06:52:25.876Z,37.80
2022-12-03T06:53:28.570Z,40.15
2022-12-03T06:54:31.494Z,41.45
2022-12-03T06:55:34.129Z,38.17
2022-12-03T06:56:43.398Z,38.17
2022-12-03T06:57:48.854Z,42.28
2022-12-03T06:58:51.616Z,39.47
2022-12-03T06:59:54.854Z,35.78
2022-12-03T07:00:57.674Z,38.30
2022-12-03T07:02:01.342Z,31.48
2022-12-03T07:03:04.877Z,39.65
2022-12-03T07:04:07.788Z,35.67
2022-12-03T07:05:11.070Z,40.15
2022-12-03T07:06:14.251Z,37.88
2022-12-03T07:07:17.099Z,37.80
2022-12-03T07:08:20.153Z,39.83
2022-12-03T07:09:23.220Z,38.80
2022-12-03T07:10:26.069Z,42.22
2022-12-03T07:11:31.648Z,37.55
2022-12-03T07:12:34.250Z,40.10
2022-12-03T07:13:37.026Z,40.38
2022-12-03T07:14:39.681Z,43.95
2022-12-03T07:15:42.679Z,43.38
2022-12-03T07:16:45.428Z,45.03
2022-12-03T07:17:48.228Z,47.10
2022-12-03T07:18:50.909Z,44.22
2022-12-03T07:19:53.984Z,45.03
2022-12-03T07:20:56.562Z,45.70
2022-12-03T07:21:59.262Z,44.80
2022-12-03T07:23:01.938Z,40.65
2022-12-03T07:24:05.733Z,46.72
2022-12-03T07:25:09.300Z,46.33
2022-12-03T07:26:11.927Z,48.87
2022-12-03T07:27:14.492Z,43.33
2022-12-03T07:28:17.132Z,48.60
2022-12-03T07:29:19.867Z,45.45
2022-12-03T07:30:23.749Z,45.35
2022-12-03T07:31:26.860Z,46.20
2022-12-03T07:32:29.507Z,44.50
2022-12-03T07:33:32.600Z,42.13
2022-12-03T07:34:35.440Z,46.78
2022-12-03T07:35:38.123Z,48.10
2022-12-03T07:36:40.793Z,44.28
2022-12-03T07:37:43.728Z,49.10
2022-12-03T07:38:46.426Z,44.70
2022-12-03T07:39:54.771Z,49.75
2022-12-03T07:40:57.550Z,45.05
2022-12-03T07:42:00.297Z,46.88
2022-12-03T07:43:03.032Z,48.50
2022-12-03T07:44:10.876Z,48.03
2022-12-03T07:45:16.825Z,47.20
2022-12-03T07:46:19.547Z,40.30
2022-12-03T07:47:22.311Z,53.87
2022-12-03T07:48:25.823Z,48.30
2022-12-03T07:49:28.478Z,51.58
2022-12-03T07:50:31.142Z,50.85
2022-12-03T07:51:33.984Z,49.58
2022-12-03T07:52:36.828Z,46.37
2022-12-03T07:53:39.754Z,46.00
2022-12-03T07:54:42.465Z,47.85
2022-12-03T07:55:45.110Z,45.83
2022-12-03T07:56:51.146Z,45.25
2022-12-03T07:57:53.811Z,46.85
2022-12-03T07:58:56.667Z,50.65
2022-12-03T07:59:59.388Z,47.10
2022-12-03T08:01:02.225Z,50.15
2022-12-03T08:02:05.356Z,48.67
2022-12-03T08:03:08.056Z,49.33
2022-12-03T08:04:13.346Z,47.75
2022-12-03T08:05:16.091Z,46.47
2022-12-03T08:06:18.710Z,50.78
2022-12-03T08:07:21.428Z,48.92
2022-12-03T08:08:24.417Z,50.80
2022-12-03T08:09:27.152Z,49.45
2022-12-03T08:10:29.973Z,47.10
2022-12-03T08:11:33.798Z,53.83
2022-12-03T08:12:42.111Z,53.25
2022-12-03T08:13:44.750Z,49.17
2022-12-03T08:14:47.506Z,46.92
2022-12-03T08:15:50.181Z,50.25
2022-12-03T08:16:53.070Z,56.55
2022-12-03T08:17:58.970Z,50.85
2022-12-03T08:19:02.719Z,52.72
2022-12-03T08:20:17.963Z,49.40
2022-12-03T08:21:22.006Z,51.35
2022-12-03T08:22:24.716Z,45.38
2022-12-03T08:23:28.073Z,51.90
2022-12-03T08:24:30.770Z,50.05
2022-12-03T08:25:33.915Z,50.00
2022-12-03T08:26:36.646Z,51.72
2022-12-03T08:27:39.441Z,49.88
2022-12-03T08:28:42.072Z,49.67
2022-12-03T08:29:45.296Z,47.97
2022-12-03T08:31:18.724Z,55.38
2022-12-03T08:32:21.411Z,50.70
2022-12-03T08:33:36.076Z,59.30
2022-12-03T08:34:43.838Z,50.35
2022-12-03T08:35:51.185Z,46.95
2022-12-03T08:37:06.047Z,47.53
2022-12-03T08:38:12.988Z,47.75
2022-12-03T08:39:34.015Z,48.92
2022-12-03T08:40:42.092Z,54.55
2022-12-03T08:42:03.473Z,46.37
2022-12-03T08:43:27.381Z,47.17
2022-12-03T08:44:41.053Z,48.55
2022-12-03T08:45:45.516Z,51.65
2022-12-03T08:46:54.474Z,60.15
2022-12-03T08:48:20.995Z,56.97
2022-12-03T08:49:23.669Z,52.28
2022-12-03T08:50:33.040Z,53.45
2022-12-03T08:51:35.763Z,53.40
2022-12-03T08:52:38.460Z,56.37
2022-12-03T08:53:49.850Z,54.08
2022-12-03T08:54:55.706Z,50.78
2022-12-03T08:56:01.851Z,53.28
2022-12-03T08:57:41.483Z,52.97
2022-12-03T08:58:46.618Z,52.28
2022-12-03T08:59:49.579Z,52.92
2022-12-03T09:00:56.708Z,56.55
2022-12-03T09:02:00.038Z,52.08
2022-12-03T09:03:02.875Z,54.83
2022-12-03T09:04:36.422Z,57.58
2022-12-03T09:05:39.157Z,51.30
2022-12-03T09:06:41.955Z,56.85
2022-12-03T09:07:44.700Z,53.67
2022-12-03T09:08:47.495Z,56.37
2022-12-03T09:09:50.787Z,57.97
2022-12-03T09:10:53.766Z,53.38
2022-12-03T09:11:56.827Z,59.40
2022-12-03T09:12:59.563Z,55.58
2022-12-03T09:14:02.257Z,54.42
2022-12-03T09:15:05.460Z,54.10
2022-12-03T09:16:08.358Z,51.95
2022-12-03T09:17:11.148Z,58.25
2022-12-03T09:18:16.901Z,59.08
2022-12-03T09:19:19.763Z,69.37
2022-12-03T09:20:22.566Z,51.92
2022-12-03T09:21:25.357Z,49.55
2022-12-03T09:22:27.966Z,51.70
2022-12-03T09:23:30.863Z,61.88
2022-12-03T09:24:33.568Z,54.63
2022-12-03T09:25:36.160Z,51.25
2022-12-03T09:26:38.949Z,55.75
2022-12-03T09:27:41.654Z,47.55
2022-12-03T09:28:44.522Z,56.95
2022-12-03T09:29:47.065Z,58.47
2022-12-03T09:30:49.791Z,50.97
2022-12-03T09:31:53.089Z,52.60
2022-12-03T09:32:55.811Z,58.40
2022-12-03T09:33:58.725Z,56.47
2022-12-03T09:35:01.713Z,51.58
2022-12-03T09:36:04.712Z,51.63
2022-12-03T09:37:07.656Z,57.78
2022-12-03T09:38:11.041Z,53.60
2022-12-03T09:39:14.022Z,52.38
2022-12-03T09:40:16.821Z,46.05
2022-12-03T09:41:19.692Z,57.95
2022-12-03T09:42:22.922Z,55.70
2022-12-03T09:43:49.351Z,55.70
2022-12-03T09:44:51.839Z,55.85
2022-12-03T09:45:54.920Z,56.85
2022-12-03T09:47:00.195Z,56.22
2022-12-03T09:48:04.353Z,59.17
2022-12-03T09:49:15.486Z,56.75
2022-12-03T09:50:26.601Z,55.28
2022-12-03T09:51:33.137Z,55.30
2022-12-03T09:52:35.982Z,71.57
2022-12-03T09:53:41.343Z,54.92
2022-12-03T09:54:47.530Z,58.70
2022-12-03T09:55:50.420Z,48.08
2022-12-03T09:56:55.776Z,49.45
2022-12-03T09:57:58.415Z,55.75
2022-12-03T09:59:01.096Z,58.47
2022-12-03T10:00:15.548Z,61.05
2022-12-03T10:01:18.932Z,53.45
2022-12-03T10:02:27.538Z,54.35
2022-12-03T10:03:32.187Z,48.30
2022-12-03T10:04:34.804Z,52.00
2022-12-03T10:05:37.538Z,52.58
2022-12-03T10:06:45.552Z,53.95
2022-12-03T10:07:50.224Z,50.12
2022-12-03T10:08:55.910Z,49.22
2022-12-03T10:09:58.574Z,55.25
2022-12-03T10:11:01.380Z,60.35
2022-12-03T10:12:04.728Z,48.28
2022-12-03T10:13:11.726Z,51.47
2022-12-03T10:14:17.350Z,51.60
2022-12-03T10:15:23.046Z,59.00
2022-12-03T10:16:26.454Z,57.03
2022-12-03T10:17:31.950Z,57.83
2022-12-03T10:18:42.176Z,54.42
2022-12-03T10:19:45.278Z,49.80
2022-12-03T10:20:48.389Z,54.40
2022-12-03T10:21:51.223Z,50.22
2022-12-03T10:22:53.853Z,59.10
2022-12-03T10:24:18.177Z,49.60
2022-12-03T10:25:23.145Z,54.20
2022-12-03T10:26:40.870Z,53.13
2022-12-03T10:27:54.807Z,47.13
2022-12-03T10:28:57.511Z,61.37
2022-12-03T10:30:02.481Z,51.35
2022-12-03T10:31:09.214Z,57.25
2022-12-03T10:32:12.930Z,47.17
2022-12-03T10:33:18.806Z,50.72
2022-12-03T10:34:33.512Z,45.65
2022-12-03T10:35:43.792Z,53.28
2022-12-03T10:36:46.616Z,47.35
2022-12-03T10:38:02.172Z,51.30
2022-12-03T10:39:16.239Z,45.58
2022-12-03T10:40:25.326Z,38.50
2022-12-03T10:41:29.051Z,45.12
2022-12-03T10:42:33.641Z,46.30
2022-12-03T10:43:36.217Z,45.03
2022-12-03T10:44:39.200Z,42.58
2022-12-03T10:45:43.064Z,41.95
2022-12-03T10:46:47.388Z,43.80
2022-12-03T10:48:13.576Z,40.08
2022-12-03T10:49:19.037Z,43.90
2022-12-03T10:50:21.640Z,39.75
2022-12-03T10:51:24.458Z,40.25
2022-12-03T10:52:27.295Z,41.00
2022-12-03T10:53:32.509Z,43.58
2022-12-03T10:54:35.772Z,43.78
2022-12-03T10:55:41.288Z,46.53
2022-12-03T10:56:44.533Z,41.17
2022-12-03T10:57:48.282Z,39.28
2022-12-03T10:58:51.469Z,42.13
2022-12-03T10:59:55.081Z,42.88
2022-12-03T11:00:59.264Z,38.75
2022-12-03T11:02:05.922Z,46.45
2022-12-03T11:03:21.997Z,61.83
2022-12-03T11:04:37.269Z,47.92
2022-12-03T11:05:40.054Z,38.55
2022-12-03T11:06:42.782Z,45.22
2022-12-03T11:07:45.918Z,47.47
2022-12-03T11:08:57.578Z,41.53
2022-12-03T11:10:02.908Z,60.38
2022-12-03T11:11:16.011Z,51.70
2022-12-03T11:12:25.457Z,42.72
2022-12-03T11:13:29.364Z,47.60
2022-12-03T11:14:56.931Z,44.20
2022-12-03T11:16:06.325Z,49.15
2022-12-03T11:17:09.366Z,40.67
2022-12-03T11:18:11.995Z,37.95
2022-12-03T11:19:19.054Z,34.22
2022-12-03T11:20:24.835Z,37.35
2022-12-03T11:21:27.592Z,40.80
2022-12-03T11:22:54.208Z,40.42
2022-12-03T11:23:59.965Z,37.47
2022-12-03T11:25:27.155Z,37.67
2022-12-03T11:26:29.723Z,40.83
2022-12-03T11:27:32.496Z,38.83
2022-12-03T11:28:36.671Z,38.72
2022-12-03T11:29:45.030Z,37.85
2022-12-03T11:30:53.893Z,38.78
2022-12-03T11:31:56.612Z,38.28
2022-12-03T11:33:00.849Z,37.65
2022-12-03T11:34:18.886Z,37.88
2022-12-03T11:35:24.029Z,40.12
2022-12-03T11:36:47.652Z,35.78
2022-12-03T11:37:49.673Z,38.42
2022-12-03T11:38:55.143Z,40.40
2022-12-03T11:40:17.746Z,33.15
2022-12-03T11:41:23.958Z,43.53
2022-12-03T11:42:38.799Z,37.88
2022-12-03T11:44:06.335Z,40.03
2022-12-03T11:45:09.004Z,39.08
2022-12-03T11:46:11.777Z,37.67
2022-12-03T11:47:16.495Z,35.55
2022-12-03T11:48:20.488Z,34.65
2022-12-03T11:49:33.625Z,33.50
2022-12-03T11:50:41.651Z,37.72
2022-12-03T11:51:44.886Z,45.85
2022-12-03T11:52:53.313Z,35.00
2022-12-03T11:53:58.937Z,40.92
2022-12-03T11:55:16.816Z,73.68
2022-12-03T11:56:28.945Z,36.03
2022-12-03T11:57:37.848Z,41.47
2022-12-03T11:58:43.641Z,39.35
2022-12-03T12:00:06.884Z,37.85
2022-12-03T12:01:10.048Z,35.22
2022-12-03T12:02:21.790Z,34.03
2022-12-03T12:03:48.973Z,41.50
2022-12-03T12:04:52.084Z,34.25
2022-12-03T12:06:12.362Z,34.35
2022-12-03T12:07:33.997Z,28.77
2022-12-03T12:09:04.131Z,29.63
2022-12-03T12:10:07.264Z,29.02
2022-12-03T12:11:28.992Z,32.38
2022-12-03T12:12:45.605Z,29.77
2022-12-03T12:14:08.176Z,31.80
2022-12-03T12:15:47.435Z,26.83
2022-12-03T12:16:55.523Z,33.00
2022-12-03T12:18:36.281Z,32.90
2022-12-03T12:19:43.951Z,30.98
2022-12-03T12:20:46.629Z,37.25
2022-12-03T12:21:50.131Z,38.17
2022-12-03T12:22:56.102Z,30.40
2022-12-03T12:24:48.486Z,34.00
2022-12-03T12:25:54.321Z,28.73
2022-12-03T12:27:19.267Z,32.22
2022-12-03T12:28:22.026Z,31.42
2022-12-03T12:29:24.988Z,31.60
2022-12-03T12:30:27.594Z,29.33
2022-12-03T12:31:30.455Z,27.80
2022-12-03T12:32:40.584Z,28.55
2022-12-03T12:33:43.291Z,28.25
2022-12-03T12:34:51.002Z,27.77
2022-12-03T12:35:54.053Z,30.60
2022-12-03T12:37:00.003Z,29.42
2022-12-03T12:38:08.845Z,28.92
2022-12-03T12:39:16.072Z,28.17
2022-12-03T12:40:19.607Z,30.20
2022-12-03T12:41:22.220Z,27.40
2022-12-03T12:42:28.112Z,27.92
2022-12-03T12:43:32.771Z,26.87
2022-12-03T12:44:35.668Z,24.98
2022-12-03T12:45:44.413Z,24.70
2022-12-03T12:46:48.606Z,28.95
2022-12-03T12:48:20.197Z,27.23
2022-12-03T12:49:27.088Z,21.23
2022-12-03T12:50:31.694Z,24.45
2022-12-03T12:51:34.467Z,21.40
2022-12-03T12:52:50.996Z,25.02
2022-12-03T12:53:54.061Z,25.62
2022-12-03T12:55:01.538Z,25.23
2022-12-03T12:56:15.518Z,27.08
2022-12-03T12:57:24.178Z,23.98
2022-12-03T12:58:31.551Z,24.95
2022-12-03T12:59:34.463Z,24.83
2022-12-03T13:00:37.626Z,23.90
2022-12-03T13:01:42.065Z,26.10
2022-12-03T13:02:50.382Z,26.45
2022-12-03T13:03:53.457Z,26.75
2022-12-03T13:04:56.347Z,25.55
2022-12-03T13:05:59.076Z,25.67
2022-12-03T13:07:01.762Z,24.02
2022-12-03T13:08:22.881Z,22.35
2022-12-03T13:09:27.131Z,25.48
2022-12-03T13:10:37.495Z,22.10
2022-12-03T13:11:45.967Z,23.65
2022-12-03T13:12:49.171Z,23.17
2022-12-03T13:13:52.229Z,22.90
2022-12-03T13:14:59.400Z,22.10
2022-12-03T13:16:11.721Z,23.60
2022-12-03T13:17:19.002Z,25.35
2022-12-03T13:18:33.794Z,24.77
2022-12-03T13:19:46.278Z,23.52
2022-12-03T13:20:50.387Z,22.50
2022-12-03T13:22:00.291Z,21.60
2022-12-03T13:23:05.963Z,20.33
2022-12-03T13:24:32.979Z,25.70
2022-12-03T13:25:59.287Z,21.05
2022-12-03T13:27:20.832Z,23.42
2022-12-03T13:28:23.447Z,23.27
2022-12-03T13:29:27.838Z,20.80
2022-12-03T13:30:30.591Z,22.25
2022-12-03T13:31:43.214Z,22.30
2022-12-03T13:32:46.677Z,21.37
2022-12-03T13:33:50.620Z,21.10
2022-12-03T13:34:55.719Z,22.10
2022-12-03T13:35:58.361Z,23.77
2022-12-03T13:37:02.319Z,23.40
2022-12-03T13:38:13.886Z,21.85
2022-12-03T13:39:38.820Z,21.83
2022-12-03T13:40:41.796Z,22.55
2022-12-03T13:42:03.468Z,24.35
2022-12-03T13:43:20.085Z,22.95
2022-12-03T13:44:22.818Z,21.95
2022-12-03T13:45:47.347Z,23.92
2022-12-03T13:46:50.050Z,20.95
2022-12-03T13:47:58.926Z,21.40
2022-12-03T13:49:02.269Z,22.62
2022-12-03T13:50:20.350Z,21.73
2022-12-03T13:51:33.467Z,23.40
2022-12-03T13:52:36.463Z,26.23
2022-12-03T13:53:40.738Z,27.70
2022-12-03T13:54:43.466Z,23.98
2022-12-03T13:55:49.007Z,25.40
2022-12-03T13:56:51.908Z,22.13
2022-12-03T13:57:55.005Z,24.60
2022-12-03T13:59:00.395Z,23.58
2022-12-03T14:00:03.844Z,25.48
2022-12-03T14:01:06.738Z,26.92
2022-12-03T14:02:10.142Z,23.67
2022-12-03T14:03:12.773Z,27.10
2022-12-03T14:04:15.315Z,21.00
2022-12-03T14:05:17.969Z,24.15
2022-12-03T14:06:20.897Z,23.15
2022-12-03T14:07:23.619Z,24.02
2022-12-03T14:08:26.345Z,21.25
2022-12-03T14:09:29.062Z,23.08